sensor_id;sensor_type;location;lat;lon;timestamp;P1;durP1;ratioP1;P2;durP2;ratioP2
71629;SDS011;59479;51.902;8.212;2023-01-16T00:00:56;4.70;;;1.30;;
71629;SDS011;59479;51.902;8.212;2023-01-16T00:03:21;5.10;;;1.70;;
71629;SDS011;59479;51.902;8.212;2023-01-16T00:05:47;3.75;;;1.70;;
71629;SDS011;59479;51.902;8.212;2023-01-16T00:08:12;3.73;;;1.40;;
71629;SDS011;59479;51.902;8.212;2023-01-16T00:10:38;5.65;;;1.55;;
71629;SDS011;59479;51.902;8.212;2023-01-16T00:13:03;3.80;;;1.15;;
71629;SDS011;59479;51.902;8.212;2023-01-16T00:15:29;4.13;;;1.30;;
71629;SDS011;59479;51.902;8.212;2023-01-16T00:17:54;3.73;;;1.80;;
71629;SDS011;59479;51.902;8.212;2023-01-16T00:20:19;4.60;;;1.60;;
71629;SDS011;59479;51.902;8.212;2023-01-16T00:22:45;5.47;;;1.70;;
71629;SDS011;59479;51.902;8.212;2023-01-16T00:25:10;4.10;;;1.50;;
71629;SDS011;59479;51.902;8.212;2023-01-16T00:27:36;5.60;;;1.40;;
71629;SDS011;59479;51.902;8.212;2023-01-16T00:30:02;5.45;;;1.27;;
71629;SDS011;59479;51.902;8.212;2023-01-16T00:32:28;6.38;;;1.50;;
71629;SDS011;59479;51.902;8.212;2023-01-16T00:34:54;3.90;;;1.57;;
71629;SDS011;59479;51.902;8.212;2023-01-16T00:37:19;4.03;;;1.50;;
71629;SDS011;59479;51.902;8.212;2023-01-16T00:39:44;4.30;;;1.60;;
71629;SDS011;59479;51.902;8.212;2023-01-16T00:42:09;5.17;;;1.60;;
71629;SDS011;59479;51.902;8.212;2023-01-16T00:44:35;4.03;;;1.43;;
71629;SDS011;59479;51.902;8.212;2023-01-16T00:47:00;5.40;;;1.45;;
71629;SDS011;59479;51.902;8.212;2023-01-16T00:49:26;4.37;;;1.40;;
71629;SDS011;59479;51.902;8.212;2023-01-16T00:51:52;5.27;;;1.20;;
71629;SDS011;59479;51.902;8.212;2023-01-16T00:54:17;4.00;;;1.52;;
71629;SDS011;59479;51.902;8.212;2023-01-16T00:56:43;5.03;;;1.73;;
71629;SDS011;59479;51.902;8.212;2023-01-16T00:59:09;4.00;;;1.60;;
71629;SDS011;59479;51.902;8.212;2023-01-16T01:01:34;4.70;;;1.77;;
71629;SDS011;59479;51.902;8.212;2023-01-16T01:04:00;4.17;;;1.40;;
71629;SDS011;59479;51.902;8.212;2023-01-16T01:06:25;4.53;;;1.30;;
71629;SDS011;59479;51.902;8.212;2023-01-16T01:08:51;4.47;;;1.40;;
71629;SDS011;59479;51.902;8.212;2023-01-16T01:11:16;3.90;;;1.60;;
71629;SDS011;59479;51.902;8.212;2023-01-16T01:13:42;5.43;;;1.87;;
71629;SDS011;59479;51.902;8.212;2023-01-16T01:16:08;5.38;;;1.20;;
71629;SDS011;59479;51.902;8.212;2023-01-16T01:18:35;3.58;;;1.55;;
71629;SDS011;59479;51.902;8.212;2023-01-16T01:21:00;3.97;;;1.40;;
71629;SDS011;59479;51.902;8.212;2023-01-16T01:23:25;4.90;;;1.67;;
71629;SDS011;59479;51.902;8.212;2023-01-16T01:25:51;3.00;;;1.40;;
71629;SDS011;59479;51.902;8.212;2023-01-16T01:28:17;4.15;;;1.45;;
71629;SDS011;59479;51.902;8.212;2023-01-16T01:30:43;3.80;;;1.52;;
71629;SDS011;59479;51.902;8.212;2023-01-16T01:33:08;3.97;;;1.37;;
71629;SDS011;59479;51.902;8.212;2023-01-16T01:35:34;3.72;;;1.23;;
71629;SDS011;59479;51.902;8.212;2023-01-16T01:38:00;4.03;;;1.27;;
71629;SDS011;59479;51.902;8.212;2023-01-16T01:40:25;5.03;;;1.80;;
71629;SDS011;59479;51.902;8.212;2023-01-16T01:42:51;3.17;;;1.10;;
71629;SDS011;59479;51.902;8.212;2023-01-16T01:47:44;4.43;;;1.67;;
71629;SDS011;59479;51.902;8.212;2023-01-16T01:52:48;3.42;;;1.70;;
71629;SDS011;59479;51.902;8.212;2023-01-16T01:55:15;3.80;;;1.00;;
71629;SDS011;59479;51.902;8.212;2023-01-16T01:57:49;5.57;;;1.20;;
71629;SDS011;59479;51.902;8.212;2023-01-16T02:00:22;6.38;;;1.70;;
71629;SDS011;59479;51.902;8.212;2023-01-16T02:02:51;3.73;;;1.37;;
71629;SDS011;59479;51.902;8.212;2023-01-16T02:05:26;4.45;;;1.20;;
71629;SDS011;59479;51.902;8.212;2023-01-16T02:07:57;3.40;;;1.50;;
71629;SDS011;59479;51.902;8.212;2023-01-16T02:10:30;4.00;;;1.50;;
71629;SDS011;59479;51.902;8.212;2023-01-16T02:13:05;4.50;;;1.70;;
71629;SDS011;59479;51.902;8.212;2023-01-16T02:15:31;5.50;;;1.37;;
71629;SDS011;59479;51.902;8.212;2023-01-16T02:17:56;3.30;;;1.20;;
71629;SDS011;59479;51.902;8.212;2023-01-16T02:26:37;2.73;;;1.00;;
71629;SDS011;59479;51.902;8.212;2023-01-16T02:32:17;4.55;;;1.63;;
71629;SDS011;59479;51.902;8.212;2023-01-16T02:34:54;3.10;;;1.20;;
71629;SDS011;59479;51.902;8.212;2023-01-16T02:37:43;3.53;;;1.35;;
71629;SDS011;59479;51.902;8.212;2023-01-16T02:40:24;5.33;;;1.17;;
71629;SDS011;59479;51.902;8.212;2023-01-16T02:45:41;3.72;;;1.40;;
71629;SDS011;59479;51.902;8.212;2023-01-16T02:53:29;2.77;;;1.37;;
71629;SDS011;59479;51.902;8.212;2023-01-16T02:56:11;2.50;;;1.20;;
71629;SDS011;59479;51.902;8.212;2023-01-16T02:58:45;3.67;;;1.40;;
71629;SDS011;59479;51.902;8.212;2023-01-16T03:01:12;3.65;;;1.45;;
71629;SDS011;59479;51.902;8.212;2023-01-16T03:06:42;2.80;;;1.40;;
71629;SDS011;59479;51.902;8.212;2023-01-16T03:14:55;3.88;;;1.20;;
71629;SDS011;59479;51.902;8.212;2023-01-16T03:17:51;5.97;;;2.03;;
71629;SDS011;59479;51.902;8.212;2023-01-16T03:23:22;2.80;;;1.17;;
71629;SDS011;59479;51.902;8.212;2023-01-16T03:25:58;4.87;;;1.37;;
71629;SDS011;59479;51.902;8.212;2023-01-16T03:33:47;2.90;;;1.10;;
71629;SDS011;59479;51.902;8.212;2023-01-16T03:36:32;3.75;;;1.38;;
71629;SDS011;59479;51.902;8.212;2023-01-16T03:39:02;4.57;;;1.43;;
71629;SDS011;59479;51.902;8.212;2023-01-16T03:41:31;3.67;;;1.45;;
71629;SDS011;59479;51.902;8.212;2023-01-16T03:44:01;3.33;;;1.55;;
71629;SDS011;59479;51.902;8.212;2023-01-16T03:46:33;3.42;;;1.42;;
71629;SDS011;59479;51.902;8.212;2023-01-16T03:49:07;2.95;;;1.30;;
71629;SDS011;59479;51.902;8.212;2023-01-16T03:51:39;3.53;;;1.30;;
71629;SDS011;59479;51.902;8.212;2023-01-16T03:54:10;3.65;;;1.30;;
71629;SDS011;59479;51.902;8.212;2023-01-16T03:57:06;2.70;;;1.00;;
71629;SDS011;59479;51.902;8.212;2023-01-16T03:59:33;4.13;;;1.35;;
71629;SDS011;59479;51.902;8.212;2023-01-16T04:02:11;3.78;;;1.10;;
71629;SDS011;59479;51.902;8.212;2023-01-16T04:05:03;3.47;;;1.40;;
71629;SDS011;59479;51.902;8.212;2023-01-16T04:07:41;3.78;;;1.20;;
71629;SDS011;59479;51.902;8.212;2023-01-16T04:10:30;5.18;;;1.20;;
71629;SDS011;59479;51.902;8.212;2023-01-16T04:13:02;2.95;;;1.45;;
71629;SDS011;59479;51.902;8.212;2023-01-16T04:15:31;5.28;;;1.17;;
71629;SDS011;59479;51.902;8.212;2023-01-16T04:17:59;2.63;;;1.13;;
71629;SDS011;59479;51.902;8.212;2023-01-16T04:20:25;3.50;;;1.50;;
71629;SDS011;59479;51.902;8.212;2023-01-16T04:22:52;3.78;;;1.35;;
71629;SDS011;59479;51.902;8.212;2023-01-16T04:25:17;2.90;;;1.00;;
71629;SDS011;59479;51.902;8.212;2023-01-16T04:27:44;2.83;;;1.45;;
71629;SDS011;59479;51.902;8.212;2023-01-16T04:30:09;4.63;;;1.53;;
71629;SDS011;59479;51.902;8.212;2023-01-16T04:32:35;3.42;;;1.38;;
71629;SDS011;59479;51.902;8.212;2023-01-16T04:35:01;3.72;;;1.40;;
71629;SDS011;59479;51.902;8.212;2023-01-16T04:37:26;4.00;;;1.50;;
71629;SDS011;59479;51.902;8.212;2023-01-16T04:39:52;4.37;;;1.07;;
71629;SDS011;59479;51.902;8.212;2023-01-16T04:42:17;3.67;;;1.38;;
71629;SDS011;59479;51.902;8.212;2023-01-16T04:44:43;4.93;;;1.57;;
71629;SDS011;59479;51.902;8.212;2023-01-16T04:47:08;4.47;;;1.20;;
71629;SDS011;59479;51.902;8.212;2023-01-16T04:49:34;3.38;;;1.10;;
71629;SDS011;59479;51.902;8.212;2023-01-16T04:51:59;3.38;;;1.20;;
71629;SDS011;59479;51.902;8.212;2023-01-16T04:54:24;3.00;;;1.10;;
71629;SDS011;59479;51.902;8.212;2023-01-16T04:56:50;3.27;;;1.07;;
71629;SDS011;59479;51.902;8.212;2023-01-16T04:59:15;3.27;;;1.57;;
71629;SDS011;59479;51.902;8.212;2023-01-16T05:01:41;3.80;;;1.20;;
71629;SDS011;59479;51.902;8.212;2023-01-16T05:04:07;2.80;;;1.23;;
71629;SDS011;59479;51.902;8.212;2023-01-16T05:06:34;4.45;;;1.48;;
71629;SDS011;59479;51.902;8.212;2023-01-16T05:09:00;5.17;;;1.33;;
71629;SDS011;59479;51.902;8.212;2023-01-16T05:11:26;3.95;;;1.40;;
71629;SDS011;59479;51.902;8.212;2023-01-16T05:13:51;3.07;;;1.33;;
71629;SDS011;59479;51.902;8.212;2023-01-16T05:16:16;2.83;;;1.27;;
71629;SDS011;59479;51.902;8.212;2023-01-16T05:18:42;3.67;;;1.40;;
71629;SDS011;59479;51.902;8.212;2023-01-16T05:21:07;3.33;;;1.07;;
71629;SDS011;59479;51.902;8.212;2023-01-16T05:23:32;2.70;;;1.50;;
71629;SDS011;59479;51.902;8.212;2023-01-16T05:25:59;3.10;;;1.65;;
71629;SDS011;59479;51.902;8.212;2023-01-16T05:28:25;3.83;;;1.00;;
71629;SDS011;59479;51.902;8.212;2023-01-16T05:30:50;3.77;;;1.27;;
71629;SDS011;59479;51.902;8.212;2023-01-16T05:33:16;3.57;;;0.90;;
71629;SDS011;59479;51.902;8.212;2023-01-16T05:35:41;2.57;;;1.00;;
71629;SDS011;59479;51.902;8.212;2023-01-16T05:38:06;2.30;;;0.87;;
71629;SDS011;59479;51.902;8.212;2023-01-16T05:40:32;3.10;;;1.30;;
71629;SDS011;59479;51.902;8.212;2023-01-16T05:42:57;3.13;;;0.87;;
71629;SDS011;59479;51.902;8.212;2023-01-16T05:45:22;2.77;;;1.10;;
71629;SDS011;59479;51.902;8.212;2023-01-16T05:47:48;2.93;;;1.40;;
71629;SDS011;59479;51.902;8.212;2023-01-16T05:50:13;2.87;;;1.37;;
71629;SDS011;59479;51.902;8.212;2023-01-16T05:52:39;2.50;;;1.10;;
71629;SDS011;59479;51.902;8.212;2023-01-16T05:55:04;2.77;;;1.13;;
71629;SDS011;59479;51.902;8.212;2023-01-16T05:57:30;3.47;;;1.50;;
71629;SDS011;59479;51.902;8.212;2023-01-16T05:59:55;3.57;;;1.10;;
71629;SDS011;59479;51.902;8.212;2023-01-16T06:02:21;2.90;;;1.23;;
71629;SDS011;59479;51.902;8.212;2023-01-16T06:04:46;2.90;;;1.40;;
71629;SDS011;59479;51.902;8.212;2023-01-16T06:07:12;5.17;;;1.17;;
71629;SDS011;59479;51.902;8.212;2023-01-16T06:09:38;3.40;;;1.40;;
71629;SDS011;59479;51.902;8.212;2023-01-16T06:12:04;3.87;;;1.23;;
71629;SDS011;59479;51.902;8.212;2023-01-16T06:14:29;2.63;;;1.15;;
71629;SDS011;59479;51.902;8.212;2023-01-16T06:16:55;3.10;;;1.67;;
71629;SDS011;59479;51.902;8.212;2023-01-16T06:19:20;3.78;;;1.30;;
71629;SDS011;59479;51.902;8.212;2023-01-16T06:21:45;2.60;;;1.05;;
71629;SDS011;59479;51.902;8.212;2023-01-16T06:24:11;3.53;;;1.13;;
71629;SDS011;59479;51.902;8.212;2023-01-16T06:26:36;2.73;;;1.13;;
71629;SDS011;59479;51.902;8.212;2023-01-16T06:29:02;3.47;;;1.27;;
71629;SDS011;59479;51.902;8.212;2023-01-16T06:31:27;3.40;;;1.43;;
71629;SDS011;59479;51.902;8.212;2023-01-16T06:33:53;2.70;;;1.25;;
71629;SDS011;59479;51.902;8.212;2023-01-16T06:36:18;3.80;;;1.63;;
71629;SDS011;59479;51.902;8.212;2023-01-16T06:38:44;3.57;;;1.40;;
71629;SDS011;59479;51.902;8.212;2023-01-16T06:41:09;3.63;;;1.87;;
71629;SDS011;59479;51.902;8.212;2023-01-16T06:43:35;4.80;;;1.40;;
71629;SDS011;59479;51.902;8.212;2023-01-16T06:46:01;3.90;;;1.83;;
71629;SDS011;59479;51.902;8.212;2023-01-16T06:48:26;4.30;;;1.53;;
71629;SDS011;59479;51.902;8.212;2023-01-16T06:50:52;3.37;;;1.60;;
71629;SDS011;59479;51.902;8.212;2023-01-16T06:53:17;4.53;;;1.92;;
71629;SDS011;59479;51.902;8.212;2023-01-16T06:55:43;3.47;;;1.37;;
71629;SDS011;59479;51.902;8.212;2023-01-16T06:58:08;3.60;;;1.80;;
71629;SDS011;59479;51.902;8.212;2023-01-16T07:00:34;4.63;;;1.73;;
71629;SDS011;59479;51.902;8.212;2023-01-16T07:03:00;3.10;;;1.38;;
71629;SDS011;59479;51.902;8.212;2023-01-16T07:05:26;3.47;;;2.13;;
71629;SDS011;59479;51.902;8.212;2023-01-16T07:07:53;4.28;;;1.65;;
71629;SDS011;59479;51.902;8.212;2023-01-16T07:10:19;5.70;;;2.63;;
71629;SDS011;59479;51.902;8.212;2023-01-16T07:12:45;5.53;;;1.75;;
71629;SDS011;59479;51.902;8.212;2023-01-16T07:15:11;4.53;;;1.30;;
71629;SDS011;59479;51.902;8.212;2023-01-16T07:17:55;3.17;;;1.20;;
71629;SDS011;59479;51.902;8.212;2023-01-16T07:20:39;3.55;;;1.80;;
71629;SDS011;59479;51.902;8.212;2023-01-16T07:23:25;4.55;;;2.05;;
71629;SDS011;59479;51.902;8.212;2023-01-16T07:25:53;4.25;;;1.95;;
71629;SDS011;59479;51.902;8.212;2023-01-16T07:28:19;6.43;;;2.00;;
71629;SDS011;59479;51.902;8.212;2023-01-16T07:30:45;3.47;;;1.40;;
71629;SDS011;59479;51.902;8.212;2023-01-16T07:33:12;3.88;;;1.50;;
71629;SDS011;59479;51.902;8.212;2023-01-16T07:35:38;4.07;;;1.48;;
71629;SDS011;59479;51.902;8.212;2023-01-16T07:38:03;4.43;;;1.40;;
71629;SDS011;59479;51.902;8.212;2023-01-16T07:40:28;4.03;;;1.50;;
71629;SDS011;59479;51.902;8.212;2023-01-16T07:42:54;4.93;;;1.67;;
71629;SDS011;59479;51.902;8.212;2023-01-16T07:45:19;4.83;;;1.87;;
71629;SDS011;59479;51.902;8.212;2023-01-16T07:47:45;3.33;;;1.60;;
71629;SDS011;59479;51.902;8.212;2023-01-16T07:50:10;4.35;;;1.38;;
71629;SDS011;59479;51.902;8.212;2023-01-16T07:52:36;4.73;;;1.50;;
71629;SDS011;59479;51.902;8.212;2023-01-16T07:55:02;5.90;;;1.80;;
71629;SDS011;59479;51.902;8.212;2023-01-16T07:57:27;6.00;;;1.97;;
71629;SDS011;59479;51.902;8.212;2023-01-16T07:59:53;7.97;;;2.40;;
71629;SDS011;59479;51.902;8.212;2023-01-16T08:02:19;6.50;;;1.83;;
71629;SDS011;59479;51.902;8.212;2023-01-16T08:04:44;5.18;;;1.67;;
71629;SDS011;59479;51.902;8.212;2023-01-16T08:07:10;5.43;;;2.10;;
71629;SDS011;59479;51.902;8.212;2023-01-16T08:09:35;6.00;;;2.23;;
71629;SDS011;59479;51.902;8.212;2023-01-16T08:12:01;4.73;;;2.40;;
71629;SDS011;59479;51.902;8.212;2023-01-16T08:14:26;5.23;;;1.70;;
71629;SDS011;59479;51.902;8.212;2023-01-16T08:16:51;4.72;;;1.80;;
71629;SDS011;59479;51.902;8.212;2023-01-16T08:19:17;4.90;;;1.98;;
71629;SDS011;59479;51.902;8.212;2023-01-16T08:21:42;4.03;;;1.47;;
71629;SDS011;59479;51.902;8.212;2023-01-16T08:24:07;4.37;;;1.70;;
71629;SDS011;59479;51.902;8.212;2023-01-16T08:26:34;3.40;;;1.80;;
71629;SDS011;59479;51.902;8.212;2023-01-16T08:29:00;3.77;;;1.63;;
71629;SDS011;59479;51.902;8.212;2023-01-16T08:31:27;3.30;;;1.70;;
71629;SDS011;59479;51.902;8.212;2023-01-16T08:33:53;3.95;;;1.60;;
71629;SDS011;59479;51.902;8.212;2023-01-16T08:36:18;3.35;;;1.55;;
71629;SDS011;59479;51.902;8.212;2023-01-16T08:38:46;3.93;;;1.80;;
71629;SDS011;59479;51.902;8.212;2023-01-16T08:41:13;4.13;;;1.40;;
71629;SDS011;59479;51.902;8.212;2023-01-16T08:43:57;3.05;;;1.50;;
71629;SDS011;59479;51.902;8.212;2023-01-16T08:46:41;5.05;;;1.55;;
71629;SDS011;59479;51.902;8.212;2023-01-16T08:49:25;3.55;;;1.52;;
71629;SDS011;59479;51.902;8.212;2023-01-16T08:52:10;2.93;;;1.50;;
71629;SDS011;59479;51.902;8.212;2023-01-16T08:54:36;4.40;;;1.58;;
71629;SDS011;59479;51.902;8.212;2023-01-16T08:57:01;3.50;;;1.77;;
71629;SDS011;59479;51.902;8.212;2023-01-16T08:59:26;3.53;;;1.70;;
71629;SDS011;59479;51.902;8.212;2023-01-16T09:01:58;4.65;;;1.67;;
71629;SDS011;59479;51.902;8.212;2023-01-16T09:04:25;3.13;;;1.58;;
71629;SDS011;59479;51.902;8.212;2023-01-16T09:06:50;3.97;;;1.70;;
71629;SDS011;59479;51.902;8.212;2023-01-16T09:09:18;6.05;;;1.73;;
71629;SDS011;59479;51.902;8.212;2023-01-16T09:11:44;3.50;;;1.30;;
71629;SDS011;59479;51.902;8.212;2023-01-16T09:14:28;4.93;;;1.60;;
71629;SDS011;59479;51.902;8.212;2023-01-16T09:16:53;3.37;;;1.73;;
71629;SDS011;59479;51.902;8.212;2023-01-16T09:19:18;3.15;;;1.27;;
71629;SDS011;59479;51.902;8.212;2023-01-16T09:21:44;3.13;;;1.58;;
71629;SDS011;59479;51.902;8.212;2023-01-16T09:24:09;2.80;;;1.37;;
71629;SDS011;59479;51.902;8.212;2023-01-16T09:26:34;4.97;;;1.97;;
71629;SDS011;59479;51.902;8.212;2023-01-16T09:29:00;3.17;;;1.50;;
71629;SDS011;59479;51.902;8.212;2023-01-16T09:31:25;2.90;;;1.50;;
71629;SDS011;59479;51.902;8.212;2023-01-16T09:33:50;3.60;;;1.93;;
71629;SDS011;59479;51.902;8.212;2023-01-16T09:36:17;3.45;;;1.90;;
71629;SDS011;59479;51.902;8.212;2023-01-16T09:38:42;5.60;;;1.70;;
71629;SDS011;59479;51.902;8.212;2023-01-16T09:41:09;3.73;;;1.83;;
71629;SDS011;59479;51.902;8.212;2023-01-16T09:43:59;4.88;;;1.83;;
71629;SDS011;59479;51.902;8.212;2023-01-16T09:46:26;4.93;;;1.98;;
71629;SDS011;59479;51.902;8.212;2023-01-16T09:51:36;4.27;;;2.20;;
71629;SDS011;59479;51.902;8.212;2023-01-16T09:54:09;4.38;;;2.08;;
71629;SDS011;59479;51.902;8.212;2023-01-16T09:56:56;4.50;;;2.00;;
71629;SDS011;59479;51.902;8.212;2023-01-16T09:59:49;5.53;;;2.30;;
71629;SDS011;59479;51.902;8.212;2023-01-16T10:02:19;5.45;;;2.38;;
71629;SDS011;59479;51.902;8.212;2023-01-16T10:04:47;5.37;;;2.10;;
71629;SDS011;59479;51.902;8.212;2023-01-16T10:13:15;4.55;;;2.47;;
71629;SDS011;59479;51.902;8.212;2023-01-16T10:18:25;4.77;;;2.07;;
71629;SDS011;59479;51.902;8.212;2023-01-16T10:24:18;4.95;;;1.63;;
71629;SDS011;59479;51.902;8.212;2023-01-16T10:29:21;6.23;;;2.13;;
71629;SDS011;59479;51.902;8.212;2023-01-16T10:32:11;5.53;;;2.10;;
71629;SDS011;59479;51.902;8.212;2023-01-16T10:34:54;5.67;;;1.50;;
71629;SDS011;59479;51.902;8.212;2023-01-16T10:37:36;4.68;;;1.90;;
71629;SDS011;59479;51.902;8.212;2023-01-16T10:40:19;3.63;;;1.70;;
71629;SDS011;59479;51.902;8.212;2023-01-16T10:42:49;3.65;;;2.13;;
71629;SDS011;59479;51.902;8.212;2023-01-16T10:45:41;5.18;;;1.98;;
71629;SDS011;59479;51.902;8.212;2023-01-16T10:48:25;3.90;;;1.93;;
71629;SDS011;59479;51.902;8.212;2023-01-16T10:51:13;3.63;;;1.60;;
71629;SDS011;59479;51.902;8.212;2023-01-16T10:53:38;7.60;;;2.05;;
71629;SDS011;59479;51.902;8.212;2023-01-16T10:56:04;4.25;;;1.95;;
71629;SDS011;59479;51.902;8.212;2023-01-16T10:58:34;3.80;;;1.70;;
71629;SDS011;59479;51.902;8.212;2023-01-16T11:03:36;3.72;;;1.88;;
71629;SDS011;59479;51.902;8.212;2023-01-16T11:06:12;4.23;;;1.50;;
71629;SDS011;59479;51.902;8.212;2023-01-16T11:08:38;3.55;;;1.50;;
71629;SDS011;59479;51.902;8.212;2023-01-16T11:11:05;4.22;;;1.50;;
71629;SDS011;59479;51.902;8.212;2023-01-16T11:13:51;3.60;;;1.85;;
71629;SDS011;59479;51.902;8.212;2023-01-16T11:16:35;6.07;;;1.65;;
71629;SDS011;59479;51.902;8.212;2023-01-16T11:19:20;4.60;;;1.60;;
71629;SDS011;59479;51.902;8.212;2023-01-16T11:21:49;5.13;;;1.85;;
71629;SDS011;59479;51.902;8.212;2023-01-16T11:24:22;7.15;;;2.05;;
71629;SDS011;59479;51.902;8.212;2023-01-16T11:26:53;4.60;;;1.50;;
71629;SDS011;59479;51.902;8.212;2023-01-16T11:29:20;5.00;;;1.92;;
71629;SDS011;59479;51.902;8.212;2023-01-16T11:31:48;4.27;;;1.60;;
71629;SDS011;59479;51.902;8.212;2023-01-16T11:34:19;4.13;;;1.60;;
71629;SDS011;59479;51.902;8.212;2023-01-16T11:36:46;4.03;;;1.80;;
71629;SDS011;59479;51.902;8.212;2023-01-16T11:39:17;5.03;;;1.40;;
71629;SDS011;59479;51.902;8.212;2023-01-16T11:41:52;3.00;;;1.40;;
71629;SDS011;59479;51.902;8.212;2023-01-16T11:44:22;3.90;;;1.30;;
71629;SDS011;59479;51.902;8.212;2023-01-16T11:47:11;3.42;;;1.50;;
71629;SDS011;59479;51.902;8.212;2023-01-16T11:49:49;3.20;;;1.60;;
71629;SDS011;59479;51.902;8.212;2023-01-16T11:52:22;3.65;;;1.90;;
71629;SDS011;59479;51.902;8.212;2023-01-16T11:55:01;3.33;;;1.65;;
71629;SDS011;59479;51.902;8.212;2023-01-16T12:08:27;3.67;;;1.30;;
71629;SDS011;59479;51.902;8.212;2023-01-16T12:11:07;3.77;;;1.40;;
71629;SDS011;59479;51.902;8.212;2023-01-16T12:16:40;2.80;;;1.50;;
71629;SDS011;59479;51.902;8.212;2023-01-16T12:22:40;3.00;;;1.50;;
71629;SDS011;59479;51.902;8.212;2023-01-16T12:36:56;3.17;;;1.50;;
71629;SDS011;59479;51.902;8.212;2023-01-16T12:39:39;2.60;;;0.97;;
71629;SDS011;59479;51.902;8.212;2023-01-16T12:45:09;3.13;;;1.10;;
71629;SDS011;59479;51.902;8.212;2023-01-16T12:53:42;2.50;;;0.90;;
71629;SDS011;59479;51.902;8.212;2023-01-16T12:59:32;2.97;;;1.30;;
71629;SDS011;59479;51.902;8.212;2023-01-16T13:02:10;3.40;;;1.30;;
71629;SDS011;59479;51.902;8.212;2023-01-16T13:04:42;2.70;;;1.40;;
71629;SDS011;59479;51.902;8.212;2023-01-16T13:07:16;2.70;;;1.33;;
71629;SDS011;59479;51.902;8.212;2023-01-16T13:09:49;2.47;;;1.00;;
71629;SDS011;59479;51.902;8.212;2023-01-16T13:12:41;2.60;;;1.08;;
71629;SDS011;59479;51.902;8.212;2023-01-16T13:15:29;3.50;;;1.40;;
71629;SDS011;59479;51.902;8.212;2023-01-16T13:18:03;3.23;;;1.00;;
71629;SDS011;59479;51.902;8.212;2023-01-16T13:20:31;3.70;;;0.88;;
71629;SDS011;59479;51.902;8.212;2023-01-16T13:23:58;2.70;;;1.00;;
71629;SDS011;59479;51.902;8.212;2023-01-16T13:25:54;2.80;;;1.17;;
71629;SDS011;59479;51.902;8.212;2023-01-16T13:28:25;2.55;;;1.30;;
71629;SDS011;59479;51.902;8.212;2023-01-16T13:31:02;2.97;;;1.03;;
71629;SDS011;59479;51.902;8.212;2023-01-16T13:33:33;2.67;;;1.17;;
71629;SDS011;59479;51.902;8.212;2023-01-16T13:41:42;3.17;;;1.55;;
71629;SDS011;59479;51.902;8.212;2023-01-16T13:44:24;2.70;;;1.27;;
71629;SDS011;59479;51.902;8.212;2023-01-16T13:47:12;2.63;;;1.05;;
71629;SDS011;59479;51.902;8.212;2023-01-16T13:49:40;2.60;;;1.23;;
71629;SDS011;59479;51.902;8.212;2023-01-16T13:52:15;3.72;;;1.42;;
71629;SDS011;59479;51.902;8.212;2023-01-16T13:54:44;2.95;;;1.08;;
71629;SDS011;59479;51.902;8.212;2023-01-16T13:57:15;3.28;;;1.20;;
71629;SDS011;59479;51.902;8.212;2023-01-16T13:59:49;2.78;;;0.90;;
71629;SDS011;59479;51.902;8.212;2023-01-16T14:10:41;2.63;;;1.20;;
71629;SDS011;59479;51.902;8.212;2023-01-16T14:13:32;2.70;;;1.00;;
71629;SDS011;59479;51.902;8.212;2023-01-16T14:19:02;2.80;;;1.37;;
71629;SDS011;59479;51.902;8.212;2023-01-16T14:21:45;2.63;;;0.98;;
71629;SDS011;59479;51.902;8.212;2023-01-16T14:24:47;2.72;;;1.02;;
71629;SDS011;59479;51.902;8.212;2023-01-16T14:27:17;2.72;;;1.35;;
71629;SDS011;59479;51.902;8.212;2023-01-16T14:29:49;2.97;;;1.50;;
71629;SDS011;59479;51.902;8.212;2023-01-16T14:32:18;3.57;;;1.40;;
71629;SDS011;59479;51.902;8.212;2023-01-16T14:34:47;2.85;;;1.10;;
71629;SDS011;59479;51.902;8.212;2023-01-16T14:40:46;2.92;;;1.10;;
71629;SDS011;59479;51.902;8.212;2023-01-16T14:45:36;3.30;;;1.10;;
71629;SDS011;59479;51.902;8.212;2023-01-16T14:53:54;2.90;;;1.23;;
71629;SDS011;59479;51.902;8.212;2023-01-16T14:56:42;3.22;;;1.30;;
71629;SDS011;59479;51.902;8.212;2023-01-16T14:59:20;2.90;;;1.40;;
71629;SDS011;59479;51.902;8.212;2023-01-16T15:01:50;2.90;;;1.50;;
71629;SDS011;59479;51.902;8.212;2023-01-16T15:04:41;3.40;;;1.20;;
71629;SDS011;59479;51.902;8.212;2023-01-16T15:07:14;6.03;;;1.42;;
71629;SDS011;59479;51.902;8.212;2023-01-16T15:09:43;2.88;;;1.10;;
71629;SDS011;59479;51.902;8.212;2023-01-16T15:12:16;3.10;;;1.50;;
71629;SDS011;59479;51.902;8.212;2023-01-16T15:14:52;2.75;;;1.30;;
71629;SDS011;59479;51.902;8.212;2023-01-16T15:17:33;2.70;;;1.20;;
71629;SDS011;59479;51.902;8.212;2023-01-16T15:20:25;3.20;;;2.00;;
71629;SDS011;59479;51.902;8.212;2023-01-16T15:23:21;3.25;;;1.33;;
71629;SDS011;59479;51.902;8.212;2023-01-16T15:34:26;3.95;;;1.90;;
71629;SDS011;59479;51.902;8.212;2023-01-16T15:36:53;4.60;;;1.60;;
71629;SDS011;59479;51.902;8.212;2023-01-16T15:41:52;2.95;;;1.40;;
71629;SDS011;59479;51.902;8.212;2023-01-16T15:44:48;3.28;;;1.48;;
71629;SDS011;59479;51.902;8.212;2023-01-16T15:50:26;3.33;;;1.60;;
71629;SDS011;59479;51.902;8.212;2023-01-16T15:53:01;3.37;;;1.73;;
71629;SDS011;59479;51.902;8.212;2023-01-16T15:55:28;3.40;;;1.50;;
71629;SDS011;59479;51.902;8.212;2023-01-16T15:58:02;3.65;;;1.42;;
71629;SDS011;59479;51.902;8.212;2023-01-16T16:05:36;3.93;;;1.60;;
71629;SDS011;59479;51.902;8.212;2023-01-16T16:08:03;4.28;;;1.50;;
71629;SDS011;59479;51.902;8.212;2023-01-16T16:10:38;4.57;;;2.00;;
71629;SDS011;59479;51.902;8.212;2023-01-16T16:13:23;6.20;;;2.38;;
71629;SDS011;59479;51.902;8.212;2023-01-16T16:15:59;3.70;;;1.90;;
71629;SDS011;59479;51.902;8.212;2023-01-16T16:18:55;4.27;;;1.90;;
71629;SDS011;59479;51.902;8.212;2023-01-16T16:21:22;4.05;;;2.03;;
71629;SDS011;59479;51.902;8.212;2023-01-16T16:23:54;4.45;;;2.15;;
71629;SDS011;59479;51.902;8.212;2023-01-16T16:26:24;3.85;;;2.20;;
71629;SDS011;59479;51.902;8.212;2023-01-16T16:28:50;3.63;;;2.15;;
71629;SDS011;59479;51.902;8.212;2023-01-16T16:34:23;3.88;;;1.90;;
71629;SDS011;59479;51.902;8.212;2023-01-16T16:36:50;3.47;;;1.70;;
71629;SDS011;59479;51.902;8.212;2023-01-16T16:41:50;3.30;;;1.67;;
71629;SDS011;59479;51.902;8.212;2023-01-16T16:44:35;3.30;;;2.00;;
71629;SDS011;59479;51.902;8.212;2023-01-16T16:47:01;5.70;;;2.08;;
71629;SDS011;59479;51.902;8.212;2023-01-16T16:49:28;4.57;;;1.70;;
71629;SDS011;59479;51.902;8.212;2023-01-16T16:51:54;3.88;;;2.00;;
71629;SDS011;59479;51.902;8.212;2023-01-16T16:54:20;3.97;;;1.73;;
71629;SDS011;59479;51.902;8.212;2023-01-16T16:56:51;4.10;;;1.90;;
71629;SDS011;59479;51.902;8.212;2023-01-16T16:59:26;5.03;;;2.22;;
71629;SDS011;59479;51.902;8.212;2023-01-16T17:01:53;4.15;;;2.28;;
71629;SDS011;59479;51.902;8.212;2023-01-16T17:04:28;5.23;;;2.30;;
71629;SDS011;59479;51.902;8.212;2023-01-16T17:06:53;3.60;;;1.58;;
71629;SDS011;59479;51.902;8.212;2023-01-16T17:09:19;4.93;;;1.90;;
71629;SDS011;59479;51.902;8.212;2023-01-16T17:11:45;4.55;;;2.60;;
71629;SDS011;59479;51.902;8.212;2023-01-16T17:14:11;3.17;;;1.70;;
71629;SDS011;59479;51.902;8.212;2023-01-16T17:16:36;3.65;;;1.80;;
71629;SDS011;59479;51.902;8.212;2023-01-16T17:19:27;4.10;;;1.60;;
71629;SDS011;59479;51.902;8.212;2023-01-16T17:21:55;3.45;;;1.90;;
71629;SDS011;59479;51.902;8.212;2023-01-16T17:24:21;5.60;;;2.43;;
71629;SDS011;59479;51.902;8.212;2023-01-16T17:26:46;3.83;;;1.90;;
71629;SDS011;59479;51.902;8.212;2023-01-16T17:29:12;3.73;;;1.90;;
71629;SDS011;59479;51.902;8.212;2023-01-16T17:31:40;3.92;;;1.90;;
71629;SDS011;59479;51.902;8.212;2023-01-16T17:34:14;4.80;;;2.47;;
71629;SDS011;59479;51.902;8.212;2023-01-16T17:36:40;3.95;;;1.85;;
71629;SDS011;59479;51.902;8.212;2023-01-16T17:39:07;3.38;;;1.73;;
71629;SDS011;59479;51.902;8.212;2023-01-16T17:41:32;5.00;;;2.53;;